MMUN

Cancún International Airport

Airport
ICAO code
MMUN
IATA Code
CUN
Summary
ICAO Region
CARSAM
ICAO Territory
Location

Cancun, Quintana Roo

Serving
Cancun
Elevation
22 ft
Coordinates
21° 2' 12" N , 86° 52' 37" W
KCC
Airport WX
Tropical Revolving Storm
Metar
Observation
MMUN 081940Z 07008KT 7SM BKN015 28/20 A3005 RMK 8/100 MDT CU
Station
Cancun International Airport
Date/Time
2022-12-08 19:40:00
Wind direction
70°
Wind speed
08 kts
Lowest cloud amount
broken clouds
Temperature
28°C
Dew point
20°C
Humidity
61%
Weather condition
n/a

International airport 6 nm south of Cancun, Mexico.

Climatology

Tropical savannah climate (Köppen climate classification Aw)

Runways

Designator Length Width Surface Rops
12L/30R 2800 45 ASP Yes/Yes
12R/30L 3500 60 ASP Yes/Yes

Airport map

Aerial View

SKYbrary Partners:

Safety knowledge contributed by: